createdAt,value
2019-04-11T00:02:09.188Z,6.70
2019-04-11T00:04:40.056Z,10.93
2019-04-11T00:07:09.970Z,10.77
2019-04-11T00:09:40.788Z,8.17
2019-04-11T00:12:10.684Z,9.53
2019-04-11T00:14:40.595Z,9.23
2019-04-11T00:17:10.249Z,7.30
2019-04-11T00:19:40.001Z,11.87
2019-04-11T00:22:09.761Z,5.87
2019-04-11T00:24:40.651Z,11.03
2019-04-11T00:27:10.813Z,6.07
2019-04-11T00:29:40.762Z,7.50
2019-04-11T00:32:12.286Z,11.67
2019-04-11T00:34:43.236Z,8.50
2019-04-11T00:37:12.862Z,7.70
2019-04-11T00:39:43.735Z,6.13
2019-04-11T00:42:14.554Z,6.67
2019-04-11T00:44:45.241Z,8.23
2019-04-11T00:47:15.163Z,7.77
2019-04-11T00:49:46.377Z,6.70
2019-04-11T00:52:16.314Z,7.83
2019-04-11T00:54:46.971Z,6.13
2019-04-11T00:57:16.915Z,6.67
2019-04-11T00:59:46.825Z,7.13
2019-04-11T01:02:17.630Z,8.07
2019-04-11T01:04:48.667Z,5.37
2019-04-11T01:07:18.766Z,5.00
2019-04-11T01:09:48.671Z,6.67
2019-04-11T01:12:20.546Z,6.23
2019-04-11T01:14:51.249Z,5.07
2019-04-11T01:17:21.280Z,4.83
2019-04-11T01:19:51.161Z,5.13
2019-04-11T01:22:21.029Z,5.70
2019-04-11T01:24:50.690Z,5.50
2019-04-11T01:27:21.545Z,6.70
2019-04-11T01:29:51.617Z,5.63
2019-04-11T01:32:22.286Z,6.93
2019-04-11T01:34:52.983Z,6.23
2019-04-11T01:37:23.815Z,5.43
2019-04-11T01:39:59.872Z,5.27
2019-04-11T01:42:31.255Z,5.13
2019-04-11T01:45:01.167Z,4.80
2019-04-11T01:47:46.921Z,6.03
2019-04-11T01:50:20.938Z,5.47
2019-04-11T01:52:50.872Z,5.67
2019-04-11T01:55:20.706Z,7.17
2019-04-11T01:57:50.478Z,6.37
2019-04-11T02:00:34.383Z,6.17
2019-04-11T02:03:04.730Z,6.23
2019-04-11T02:05:35.400Z,8.40
2019-04-11T02:08:05.244Z,5.60
2019-04-11T02:10:35.197Z,5.90
2019-04-11T02:13:05.829Z,6.07
2019-04-11T02:15:36.672Z,5.60
2019-04-11T02:18:07.621Z,5.37
2019-04-11T02:20:37.442Z,5.83
2019-04-11T02:23:20.065Z,6.23
2019-04-11T02:26:22.447Z,7.67
2019-04-11T02:28:53.036Z,5.13
2019-04-11T02:31:23.314Z,5.70
2019-04-11T02:33:53.144Z,5.90
2019-04-11T02:36:22.872Z,6.17
2019-04-11T02:38:55.214Z,6.17
2019-04-11T02:41:25.447Z,5.20
2019-04-11T02:43:57.290Z,5.17
2019-04-11T02:46:37.119Z,7.17
2019-04-11T02:49:00.848Z,8.87
2019-04-11T02:51:31.169Z,6.30
2019-04-11T02:54:02.252Z,7.53
2019-04-11T02:56:33.424Z,6.60
2019-04-11T02:59:05.160Z,6.13
2019-04-11T03:01:36.365Z,8.17
2019-04-11T03:04:07.547Z,6.50
2019-04-11T03:06:39.722Z,5.63
2019-04-11T03:09:10.917Z,7.53
2019-04-11T03:11:41.062Z,5.73
2019-04-11T03:14:12.208Z,5.87
2019-04-11T03:16:52.012Z,7.63
2019-04-11T03:19:29.648Z,6.03
2019-04-11T03:21:47.346Z,7.17
2019-04-11T03:24:17.725Z,6.33
2019-04-11T03:26:49.726Z,7.03
2019-04-11T03:29:20.379Z,5.47
2019-04-11T03:32:31.523Z,5.83
2019-04-11T03:35:27.045Z,6.90
2019-04-11T03:39:43.628Z,7.00
2019-04-11T03:42:15.748Z,7.40
2019-04-11T03:44:37.191Z,5.33
2019-04-11T03:47:18.069Z,7.60
2019-04-11T03:49:41.945Z,7.40
2019-04-11T03:52:08.188Z,6.23
2019-04-11T03:54:38.941Z,5.73
2019-04-11T03:57:09.823Z,6.27
2019-04-11T03:59:40.719Z,6.70
2019-04-11T04:02:13.025Z,8.07
2019-04-11T04:04:43.611Z,7.27
2019-04-11T04:07:16.546Z,6.43
2019-04-11T04:09:46.309Z,5.73
2019-04-11T04:12:18.542Z,6.20
2019-04-11T04:14:58.942Z,6.53
2019-04-11T04:17:45.628Z,6.80
2019-04-11T04:20:35.237Z,6.43
2019-04-11T04:23:11.896Z,6.90
2019-04-11T04:25:43.486Z,5.40
2019-04-11T04:28:14.246Z,5.37
2019-04-11T04:30:45.299Z,6.03
2019-04-11T04:33:17.069Z,8.57
2019-04-11T04:35:47.645Z,6.37
2019-04-11T04:38:18.920Z,6.30
2019-04-11T04:41:05.912Z,7.17
2019-04-11T04:43:22.718Z,6.23
2019-04-11T04:46:10.304Z,6.20
2019-04-11T04:48:26.773Z,7.23
2019-04-11T04:50:57.623Z,6.83
2019-04-11T04:53:28.354Z,8.67
2019-04-11T04:55:58.196Z,7.30
2019-04-11T04:58:29.329Z,8.37
2019-04-11T05:01:01.147Z,6.83
2019-04-11T05:03:32.003Z,7.90
2019-04-11T05:06:03.861Z,7.37
2019-04-11T05:08:34.720Z,8.50
2019-04-11T05:11:04.772Z,9.27
2019-04-11T05:13:35.238Z,7.20
2019-04-11T05:16:15.124Z,6.80
2019-04-11T05:18:37.753Z,6.00
2019-04-11T05:21:08.380Z,7.83
2019-04-11T05:23:39.467Z,7.40
2019-04-11T05:26:09.196Z,7.43
2019-04-11T05:28:39.365Z,9.90
2019-04-11T05:31:10.179Z,8.03
2019-04-11T05:33:40.138Z,7.00
2019-04-11T05:36:10.228Z,6.80
2019-04-11T05:38:42.132Z,5.83
2019-04-11T05:41:13.508Z,6.03
2019-04-11T05:43:43.342Z,6.17
2019-04-11T05:46:29.898Z,5.57
2019-04-11T05:49:00.457Z,5.60
2019-04-11T05:51:36.894Z,5.50
2019-04-11T05:54:01.948Z,4.93
2019-04-11T05:56:31.758Z,10.37
2019-04-11T05:59:07.797Z,4.57
2019-04-11T06:01:42.515Z,5.23
2019-04-11T06:04:23.319Z,4.57
2019-04-11T06:06:59.723Z,3.90
2019-04-11T06:09:32.954Z,8.20
2019-04-11T06:12:19.575Z,2.97
2019-04-11T06:14:55.655Z,4.70
2019-04-11T06:17:25.989Z,5.30
2019-04-11T06:20:14.405Z,3.70
2019-04-11T06:22:50.596Z,3.17
2019-04-11T06:25:51.866Z,3.50
2019-04-11T06:28:24.436Z,2.77
2019-04-11T06:31:12.097Z,4.43
2019-04-11T06:33:46.906Z,3.67
2019-04-11T06:36:30.363Z,3.73
2019-04-11T06:39:13.769Z,2.40
2019-04-11T06:42:04.129Z,2.93
2019-04-11T06:44:46.057Z,4.53
2019-04-11T06:47:29.919Z,2.67
2019-04-11T06:50:07.128Z,2.33
2019-04-11T06:52:37.362Z,3.37
2019-04-11T06:55:26.747Z,3.17
2019-04-11T06:58:04.758Z,3.03
2019-04-11T07:00:34.984Z,2.33
2019-04-11T07:03:05.595Z,2.27
2019-04-11T07:05:38.536Z,2.00
2019-04-11T07:08:09.632Z,3.27
2019-04-11T07:10:48.855Z,3.00
2019-04-11T07:13:24.835Z,2.53
2019-04-11T07:15:56.907Z,2.10
2019-04-11T07:18:44.239Z,4.13
2019-04-11T07:21:14.978Z,3.73
2019-04-11T07:24:03.258Z,3.13
2019-04-11T07:26:42.018Z,2.83
2019-04-11T07:29:37.894Z,2.43
2019-04-11T07:32:18.141Z,2.77
2019-04-11T07:35:06.371Z,2.80
2019-04-11T07:37:57.789Z,4.17
2019-04-11T07:40:45.471Z,3.87
2019-04-11T07:43:23.282Z,2.97
2019-04-11T07:46:25.229Z,1.97
2019-04-11T07:48:59.419Z,3.63
2019-04-11T07:51:30.415Z,1.97
2019-04-11T07:54:02.620Z,3.00
2019-04-11T07:57:04.192Z,2.50
2019-04-11T08:00:03.760Z,2.83
2019-04-11T08:02:51.731Z,3.37
2019-04-11T08:05:58.954Z,4.07
2019-04-11T08:08:44.195Z,2.37
2019-04-11T08:11:42.594Z,2.80
2019-04-11T08:14:30.753Z,3.77
2019-04-11T08:17:33.712Z,2.83
2019-04-11T08:20:15.342Z,4.47
2019-04-11T08:22:55.054Z,3.47
2019-04-11T08:25:41.919Z,3.67
2019-04-11T08:28:14.046Z,3.00
2019-04-11T08:31:09.378Z,3.30
2019-04-11T08:33:40.500Z,3.63
2019-04-11T08:36:27.891Z,3.00
2019-04-11T08:39:00.584Z,3.50
2019-04-11T08:41:49.647Z,3.23
2019-04-11T08:44:23.779Z,3.73
2019-04-11T08:47:02.561Z,4.27
2019-04-11T08:49:39.750Z,2.40
2019-04-11T08:52:15.974Z,3.03
2019-04-11T08:55:12.172Z,4.37
2019-04-11T08:57:44.850Z,2.73
2019-04-11T09:00:49.871Z,6.93
2019-04-11T09:03:58.184Z,2.30
2019-04-11T09:06:26.827Z,2.93
2019-04-11T09:09:15.314Z,1.80
2019-04-11T09:11:50.936Z,2.77
2019-04-11T09:14:52.693Z,3.57
2019-04-11T09:17:28.675Z,3.00
2019-04-11T09:20:16.667Z,3.90
2019-04-11T09:22:53.243Z,1.83
2019-04-11T09:25:43.447Z,2.13
2019-04-11T09:28:19.555Z,2.60
2019-04-11T09:31:10.544Z,2.57
2019-04-11T09:33:58.070Z,3.87
2019-04-11T09:37:03.176Z,1.80
2019-04-11T09:39:39.227Z,2.13
2019-04-11T09:42:28.299Z,2.10
2019-04-11T09:45:10.989Z,1.97
2019-04-11T09:48:08.371Z,1.67
2019-04-11T09:50:42.726Z,1.80
2019-04-11T09:53:12.793Z,2.10
2019-04-11T09:56:00.528Z,2.40
2019-04-11T09:58:31.569Z,2.53
2019-04-11T10:01:13.427Z,3.27
2019-04-11T10:03:43.403Z,2.27
2019-04-11T10:06:36.616Z,1.93
2019-04-11T10:09:11.469Z,2.30
2019-04-11T10:11:59.185Z,3.70
2019-04-11T10:14:31.402Z,2.08
2019-04-11T10:17:22.264Z,2.63
2019-04-11T10:19:54.147Z,1.77
2019-04-11T10:22:48.071Z,2.17
2019-04-11T10:25:37.338Z,3.35
2019-04-11T10:28:29.708Z,3.22
2019-04-11T10:31:08.521Z,4.30
2019-04-11T10:33:45.252Z,3.08
2019-04-11T10:36:29.554Z,1.92
2019-04-11T10:39:11.058Z,3.90
2019-04-11T10:41:44.059Z,2.80
2019-04-11T10:44:17.951Z,3.50
2019-04-11T10:46:53.119Z,2.73
2019-04-11T10:49:44.939Z,1.90
2019-04-11T10:52:38.291Z,2.30
2019-04-11T10:55:11.457Z,2.17
2019-04-11T10:57:46.792Z,2.37
2019-04-11T11:00:25.122Z,3.17
2019-04-11T11:03:06.137Z,3.55
2019-04-11T11:05:38.110Z,2.65
2019-04-11T11:08:26.011Z,2.47
2019-04-11T11:10:57.751Z,3.55
2019-04-11T11:13:47.702Z,3.57
2019-04-11T11:16:22.303Z,4.50
2019-04-11T11:19:41.977Z,2.40
2019-04-11T11:22:05.099Z,3.15
2019-04-11T11:25:11.651Z,3.95
2019-04-11T11:27:39.486Z,2.50
2019-04-11T11:30:27.450Z,3.50
2019-04-11T11:32:58.239Z,5.50
2019-04-11T11:35:40.995Z,4.03
2019-04-11T11:38:16.256Z,5.45
2019-04-11T11:41:24.740Z,3.15
2019-04-11T11:43:55.094Z,3.10
2019-04-11T11:46:43.051Z,3.50
2019-04-11T11:49:29.613Z,3.12
2019-04-11T11:52:09.190Z,2.85
2019-04-11T11:54:44.009Z,2.98
2019-04-11T11:57:22.523Z,3.58
2019-04-11T11:59:56.593Z,2.87
2019-04-11T12:02:34.864Z,3.83
2019-04-11T12:05:14.854Z,3.27
2019-04-11T12:07:47.306Z,3.62
2019-04-11T12:10:25.992Z,3.03
2019-04-11T12:13:21.967Z,4.87
2019-04-11T12:16:10.004Z,3.10
2019-04-11T12:18:55.100Z,5.33
2019-04-11T12:21:28.525Z,3.63
2019-04-11T12:24:20.787Z,5.20
2019-04-11T12:27:09.917Z,3.60
2019-04-11T12:30:15.537Z,3.77
2019-04-11T12:32:55.097Z,3.77
2019-04-11T12:35:44.994Z,4.25
2019-04-11T12:38:24.538Z,3.87
2019-04-11T12:41:14.932Z,3.72
2019-04-11T12:44:04.198Z,3.92
2019-04-11T12:46:51.938Z,4.53
2019-04-11T12:49:52.956Z,4.25
2019-04-11T12:52:30.530Z,3.90
2019-04-11T12:55:00.651Z,3.87
2019-04-11T12:57:52.190Z,2.50
2019-04-11T13:00:39.323Z,3.80
2019-04-11T13:03:28.758Z,3.67
2019-04-11T13:06:02.475Z,4.90
2019-04-11T13:08:49.915Z,4.80
2019-04-11T13:11:19.653Z,3.75
2019-04-11T13:14:12.298Z,4.10
2019-04-11T13:16:44.427Z,4.37
2019-04-11T13:19:51.619Z,4.43
2019-04-11T13:22:23.324Z,4.97
2019-04-11T13:25:06.451Z,4.47
2019-04-11T13:27:49.104Z,4.30
2019-04-11T13:30:42.607Z,4.87
2019-04-11T13:33:19.028Z,4.60
2019-04-11T13:36:06.815Z,4.13
2019-04-11T13:38:47.543Z,3.27
2019-04-11T13:41:32.091Z,3.60
2019-04-11T13:44:09.872Z,5.80
2019-04-11T13:46:58.833Z,4.07
2019-04-11T13:49:48.656Z,4.20
2019-04-11T13:52:32.995Z,6.10
2019-04-11T13:55:37.820Z,5.27
2019-04-11T13:58:25.750Z,4.57
2019-04-11T14:00:56.790Z,4.27
2019-04-11T14:03:48.985Z,4.90
2019-04-11T14:06:27.886Z,4.33
2019-04-11T14:09:19.889Z,5.37
2019-04-11T14:11:53.905Z,7.77
2019-04-11T14:14:35.713Z,8.57
2019-04-11T14:17:24.859Z,5.77
2019-04-11T14:20:12.608Z,7.47
2019-04-11T14:23:05.659Z,6.97
2019-04-11T14:25:47.114Z,6.47
2019-04-11T14:28:17.090Z,7.33
2019-04-11T14:31:00.847Z,4.73
2019-04-11T14:33:32.207Z,8.40
2019-04-11T14:36:39.258Z,5.97
2019-04-11T14:39:11.095Z,5.33
2019-04-11T14:42:04.383Z,3.90
2019-04-11T14:44:35.003Z,5.07
2019-04-11T14:47:22.599Z,7.50
2019-04-11T14:49:57.872Z,4.93
2019-04-11T14:53:02.158Z,4.97
2019-04-11T14:55:33.623Z,5.67
2019-04-11T14:58:23.756Z,4.90
2019-04-11T15:00:55.020Z,4.73
2019-04-11T15:03:36.552Z,4.33
2019-04-11T15:06:14.546Z,7.03
2019-04-11T15:08:54.217Z,5.03
2019-04-11T15:11:38.483Z,5.03
2019-04-11T15:14:18.200Z,4.70
2019-04-11T15:17:07.151Z,4.00
2019-04-11T15:19:36.922Z,5.87
2019-04-11T15:22:39.185Z,4.43
2019-04-11T15:25:16.683Z,4.20
2019-04-11T15:28:17.468Z,4.87
2019-04-11T15:30:49.490Z,6.00
2019-04-11T15:33:44.863Z,4.77
2019-04-11T15:36:16.929Z,5.20
2019-04-11T15:38:57.211Z,5.53
2019-04-11T15:41:27.495Z,4.17
2019-04-11T15:44:14.967Z,6.33
2019-04-11T15:46:47.604Z,5.97
2019-04-11T15:49:46.500Z,8.17
2019-04-11T15:52:18.698Z,5.13
2019-04-11T15:55:13.644Z,5.90
2019-04-11T15:57:46.250Z,5.90
2019-04-11T16:00:47.368Z,6.50
2019-04-11T16:03:19.667Z,7.37
2019-04-11T16:06:07.398Z,4.90
2019-04-11T16:08:43.643Z,5.90
2019-04-11T16:11:32.620Z,5.83
2019-04-11T16:14:10.769Z,5.97
2019-04-11T16:16:59.680Z,5.53
2019-04-11T16:19:47.914Z,4.97
2019-04-11T16:22:45.967Z,5.00
2019-04-11T16:25:28.958Z,5.00
2019-04-11T16:28:14.105Z,11.43
2019-04-11T16:30:51.919Z,6.40
2019-04-11T16:33:30.723Z,7.00
2019-04-11T16:36:13.736Z,5.30
2019-04-11T16:39:01.462Z,6.80
2019-04-11T16:41:51.619Z,6.07
2019-04-11T16:44:29.568Z,7.37
2019-04-11T16:47:36.815Z,7.50
2019-04-11T16:50:06.687Z,5.83
2019-04-11T16:52:38.657Z,8.10
2019-04-11T16:55:10.046Z,5.63
2019-04-11T16:57:43.840Z,6.60
2019-04-11T17:00:14.121Z,5.97
2019-04-11T17:02:47.247Z,5.40
2019-04-11T17:05:17.140Z,9.27
2019-04-11T17:07:57.380Z,5.93
2019-04-11T17:10:44.869Z,10.43
2019-04-11T17:13:14.904Z,7.37
2019-04-11T17:15:44.737Z,6.87
2019-04-11T17:18:14.435Z,5.67
2019-04-11T17:20:44.115Z,5.83
2019-04-11T17:23:13.775Z,5.13
2019-04-11T17:25:43.499Z,6.17
2019-04-11T17:28:13.284Z,8.60
2019-04-11T17:30:43.038Z,8.70
2019-04-11T17:33:13.791Z,5.47
2019-04-11T17:35:43.575Z,5.67
2019-04-11T17:38:13.396Z,9.37
2019-04-11T17:40:43.055Z,5.37
2019-04-11T17:43:13.888Z,7.43
2019-04-11T17:45:44.330Z,9.63
2019-04-11T17:48:14.346Z,7.10
2019-04-11T17:50:44.482Z,9.20
2019-04-11T17:53:14.278Z,6.27
2019-04-11T17:55:44.111Z,5.80
2019-04-11T17:58:13.873Z,7.40
2019-04-11T18:00:45.759Z,6.70
2019-04-11T18:03:16.482Z,6.00
2019-04-11T18:05:47.024Z,5.13
2019-04-11T18:08:19.897Z,5.03
2019-04-11T18:10:48.676Z,8.20
2019-04-11T18:13:23.143Z,6.90
2019-04-11T18:15:55.557Z,6.00
2019-04-11T18:18:25.266Z,5.90
2019-04-11T18:20:55.079Z,8.33
2019-04-11T18:23:24.959Z,6.13
2019-04-11T18:25:54.650Z,7.37
2019-04-11T18:28:24.317Z,5.63
2019-04-11T18:30:54.745Z,6.53
2019-04-11T18:33:24.635Z,6.43
2019-04-11T18:35:54.572Z,6.40
2019-04-11T18:38:24.355Z,6.70
2019-04-11T18:40:55.281Z,9.13
2019-04-11T18:43:25.557Z,8.83
2019-04-11T18:45:55.608Z,6.83
2019-04-11T18:48:25.413Z,6.97
2019-04-11T18:50:55.111Z,6.93
2019-04-11T18:53:24.852Z,7.20
2019-04-11T18:55:54.643Z,7.27
2019-04-11T18:58:24.343Z,7.60
2019-04-11T19:00:54.197Z,5.67
2019-04-11T19:03:35.438Z,6.07
2019-04-11T19:05:55.416Z,6.03
2019-04-11T19:08:25.223Z,7.27
2019-04-11T19:10:55.090Z,5.90
2019-04-11T19:13:24.872Z,7.60
2019-04-11T19:15:54.782Z,7.43
2019-04-11T19:18:24.460Z,5.47
2019-04-11T19:20:54.152Z,7.07
2019-04-11T19:23:23.897Z,8.67
2019-04-11T19:25:53.531Z,6.83
2019-04-11T19:28:25.119Z,6.83
2019-04-11T19:30:56.784Z,7.37
2019-04-11T19:33:26.103Z,6.67
2019-04-11T19:35:55.863Z,7.67
2019-04-11T19:38:27.545Z,5.73
2019-04-11T19:40:57.280Z,8.07
2019-04-11T19:43:27.075Z,9.30
2019-04-11T19:45:58.651Z,7.73
2019-04-11T19:48:28.156Z,6.77
2019-04-11T19:50:59.006Z,7.63
2019-04-11T19:53:32.818Z,7.07
2019-04-11T19:56:06.260Z,7.90
2019-04-11T19:58:35.983Z,7.57
2019-04-11T20:01:05.769Z,6.57
2019-04-11T20:03:36.424Z,8.70
2019-04-11T20:06:06.316Z,5.03
2019-04-11T20:08:36.062Z,5.40
2019-04-11T20:11:05.835Z,8.27
2019-04-11T20:13:35.667Z,7.47
2019-04-11T20:16:05.718Z,8.07
2019-04-11T20:18:35.416Z,8.70
2019-04-11T20:21:07.664Z,6.17
2019-04-11T20:23:36.609Z,6.17
2019-04-11T20:26:06.291Z,6.73
2019-04-11T20:28:36.051Z,7.53
2019-04-11T20:31:05.735Z,7.00
2019-04-11T20:33:35.450Z,6.27
2019-04-11T20:36:05.272Z,6.03
2019-04-11T20:38:35.085Z,6.90
2019-04-11T20:41:04.900Z,5.37
2019-04-11T20:43:34.936Z,7.27
2019-04-11T20:46:04.645Z,5.83
2019-04-11T20:48:35.249Z,5.33
2019-04-11T20:51:05.182Z,5.83
2019-04-11T20:53:37.471Z,7.07
2019-04-11T20:56:09.492Z,7.57
2019-04-11T20:58:39.698Z,5.90
2019-04-11T21:01:09.414Z,9.20
2019-04-11T21:03:39.131Z,7.17
2019-04-11T21:06:08.936Z,7.17
2019-04-11T21:08:38.652Z,7.57
2019-04-11T21:11:08.340Z,5.73
2019-04-11T21:13:38.359Z,5.57
2019-04-11T21:16:08.751Z,8.20
2019-04-11T21:18:38.723Z,5.67
2019-04-11T21:21:08.559Z,6.73
2019-04-11T21:23:38.294Z,6.57
2019-04-11T21:26:08.186Z,7.50
2019-04-11T21:28:37.868Z,8.40
2019-04-11T21:31:07.863Z,7.50
2019-04-11T21:33:37.684Z,7.23
2019-04-11T21:36:07.338Z,9.53
2019-04-11T21:38:37.057Z,7.07
2019-04-11T21:41:06.816Z,7.33
2019-04-11T21:43:36.906Z,7.53
2019-04-11T21:46:07.539Z,8.63
2019-04-11T21:48:37.359Z,8.13
2019-04-11T21:51:11.080Z,7.37
2019-04-11T21:53:39.346Z,8.03
2019-04-11T21:56:09.041Z,5.63
2019-04-11T21:58:38.792Z,8.10
2019-04-11T22:01:12.062Z,7.03
2019-04-11T22:03:43.630Z,7.07
2019-04-11T22:06:13.359Z,6.80
2019-04-11T22:08:43.283Z,5.83
2019-04-11T22:11:13.063Z,6.80
2019-04-11T22:13:42.858Z,6.37
2019-04-11T22:16:14.272Z,6.60
2019-04-11T22:18:44.496Z,10.23
2019-04-11T22:21:15.587Z,6.73
2019-04-11T22:23:48.961Z,7.93
2019-04-11T22:26:17.206Z,6.87
2019-04-11T22:28:47.047Z,8.03
2019-04-11T22:31:16.868Z,8.03
2019-04-11T22:34:00.937Z,7.67
2019-04-11T22:36:30.851Z,6.40
2019-04-11T22:39:01.056Z,8.43
2019-04-11T22:41:32.932Z,6.60
2019-04-11T22:44:02.651Z,8.33
2019-04-11T22:46:32.387Z,8.47
2019-04-11T22:49:02.111Z,8.57
2019-04-11T22:51:32.917Z,8.07
2019-04-11T22:54:02.615Z,7.97
2019-04-11T22:56:32.287Z,11.33
2019-04-11T22:59:02.059Z,10.50
2019-04-11T23:01:31.903Z,7.47
2019-04-11T23:04:02.184Z,7.83
2019-04-11T23:06:31.996Z,7.90
2019-04-11T23:09:01.747Z,7.07
2019-04-11T23:11:33.166Z,6.77
2019-04-11T23:14:02.895Z,6.67
2019-04-11T23:16:32.523Z,7.00
2019-04-11T23:19:02.296Z,7.07
2019-04-11T23:21:31.931Z,8.57
2019-04-11T23:24:11.494Z,9.07
2019-04-11T23:26:34.313Z,10.37
2019-04-11T23:29:04.129Z,9.53
2019-04-11T23:31:33.860Z,9.90
2019-04-11T23:34:03.722Z,10.70
2019-04-11T23:36:33.432Z,9.90
2019-04-11T23:39:05.081Z,8.00
2019-04-11T23:41:34.848Z,7.50
2019-04-11T23:44:04.837Z,7.63
2019-04-11T23:46:34.561Z,7.03
2019-04-11T23:49:04.291Z,8.97
2019-04-11T23:51:34.131Z,6.17
2019-04-11T23:54:03.950Z,6.27
2019-04-11T23:56:33.689Z,7.13
2019-04-11T23:59:03.546Z,8.83
